Share

Tataouine, Tunisie

Remada (DTTD) Alt. 988 ft | 32.32 °N, 10.40 °E | Change Station

Current weather conditions updated 2 hours ago

Partly Cloudy
Partiellement nuageux
73 ° F
Paraît 73 ° F
N
7
Vent Variable Vent de NO
Lever du soleil 5:45 AM
Coucher du soleil 6:50 PM
Lune Lune gibbeuse décroissante

Demain il est prévu de faire bien plus chaud qu’aujourd’hui.

Pression 29.89 pouce
Visibilité 6.2 Miles terrestres
Nuages Peu 2600 ft
Point de rosée 32 ° F
Humidité 22%
Précipitations 0.00 pouce
Profondeur de la couche neigeuse Non disponible.
UV 0 sur 16
Pollen Non disponible.
Qualité de l'air Non disponible.
Flu Activity Non disponible.
METAR DTTD 181800Z 32006KT 290V350 9999 FEW026 23/00 Q1012

More Conditions Fewer Conditions

Pression 29.89 pouce
Visibilité 6.2 Miles terrestres
Nuages Peu 2600 ft
Point de rosée 32 ° F
Humidité 22%
Précipitations 0.00 pouce
Profondeur de la couche neigeuse Non disponible.
UV 0 sur 16
Pollen Non disponible.
Qualité de l'air Non disponible.
Flu Activity Non disponible.
METAR DTTD 181800Z 32006KT 290V350 9999 FEW026 23/00 Q1012

More Conditions Fewer Conditions

10-Day Weather Forecast

Almanac

Astronomie

Apr. 18, 2014 Lever Coucher
Temps réel 05:45 CET 18:50 CET
Crépuscule civil 05:19 CET 19:16 CET
Crépuscule nautique 04:49 CET 19:46 CET
Crépuscule astronomique 04:18 CET 20:17 CET
Lune 22:12 CET 07:59 CET
Durée de lumière visible 13h 56m
Longueur du jour
13h 05m
Tomorrow will be 1m 54s longer.
Lune gibbeuse décroissante, 86% of the Moon is Illuminated
Aujourd'hui
Lune gibbeuse décroissante
avr 22
Dernier quartier
avr 29
Nouveau
mai 6
Premier quartier
mai 14
Pleine lune

Extrêmes aujourd'hui

Country Highs Country Lows

Community

  • What's for Lunch?
    What's for Lunch?
  • SUNRISE THROUGH THE TREES.
    SUNRISE THROUGH THE TREES.
  • Dog Wood Blossoms
    Dog Wood Blossoms
  • Morning Light
    Morning Light
  • New Day
    New Day

WunderPhotos

Upload Photos

1,702,495 Photos téléchargées !

WunderBlogs® & News

Nearby

Qualité de l'air

Not available.

Épaisseur de neige

Not available.

Températures des eaux côtières

Lieu Température
Aucun rapport de station

Activité sismique

Ville Distance Mag. Time & Date
No recent earthquake activity has been reported nearby.
Minimum magnitude displayed is 2.5.

Stations météo à proximité

Il n'y a aucune station météorologique personnelle dans cette zone.

What do you think?

We're not finished. Please let us know what you like, what you don't like, and what you are still missing.